sensor_id;sensor_type;location;lat;lon;timestamp;P1;durP1;ratioP1;P2;durP2;ratioP2
13741;SDS011;8461;52.356;10.704;2022-09-09T00:06:50;3.77;;;2.40;;
13741;SDS011;8461;52.356;10.704;2022-09-09T00:09:21;2.73;;;2.23;;
13741;SDS011;8461;52.356;10.704;2022-09-09T00:12:04;3.17;;;2.50;;
13741;SDS011;8461;52.356;10.704;2022-09-09T00:14:42;3.10;;;2.60;;
13741;SDS011;8461;52.356;10.704;2022-09-09T00:17:35;5.27;;;2.40;;
13741;SDS011;8461;52.356;10.704;2022-09-09T00:20:12;3.40;;;2.63;;
13741;SDS011;8461;52.356;10.704;2022-09-09T00:22:47;6.47;;;2.03;;
13741;SDS011;8461;52.356;10.704;2022-09-09T00:26:04;3.53;;;1.83;;
13741;SDS011;8461;52.356;10.704;2022-09-09T00:28:16;4.43;;;2.23;;
13741;SDS011;8461;52.356;10.704;2022-09-09T00:30:45;2.20;;;1.90;;
13741;SDS011;8461;52.356;10.704;2022-09-09T00:33:13;5.03;;;2.27;;
13741;SDS011;8461;52.356;10.704;2022-09-09T00:35:49;3.17;;;2.23;;
13741;SDS011;8461;52.356;10.704;2022-09-09T00:41:25;2.67;;;1.73;;
13741;SDS011;8461;52.356;10.704;2022-09-09T00:49:41;2.57;;;1.40;;
13741;SDS011;8461;52.356;10.704;2022-09-09T00:52:30;2.17;;;1.53;;
13741;SDS011;8461;52.356;10.704;2022-09-09T00:57:40;2.60;;;1.63;;
13741;SDS011;8461;52.356;10.704;2022-09-09T01:12:11;3.43;;;1.90;;
13741;SDS011;8461;52.356;10.704;2022-09-09T01:14:30;2.87;;;1.30;;
13741;SDS011;8461;52.356;10.704;2022-09-09T01:17:02;3.23;;;1.30;;
13741;SDS011;8461;52.356;10.704;2022-09-09T01:27:26;3.43;;;1.20;;
13741;SDS011;8461;52.356;10.704;2022-09-09T01:29:52;2.77;;;1.40;;
13741;SDS011;8461;52.356;10.704;2022-09-09T01:32:37;2.93;;;1.10;;
13741;SDS011;8461;52.356;10.704;2022-09-09T01:35:35;1.70;;;1.23;;
13741;SDS011;8461;52.356;10.704;2022-09-09T01:37:59;2.40;;;1.20;;
13741;SDS011;8461;52.356;10.704;2022-09-09T01:40:25;4.67;;;1.33;;
13741;SDS011;8461;52.356;10.704;2022-09-09T01:42:51;6.27;;;1.33;;
13741;SDS011;8461;52.356;10.704;2022-09-09T01:45:17;4.10;;;1.27;;
13741;SDS011;8461;52.356;10.704;2022-09-09T01:47:43;3.00;;;1.10;;
13741;SDS011;8461;52.356;10.704;2022-09-09T01:50:10;1.13;;;0.80;;
13741;SDS011;8461;52.356;10.704;2022-09-09T01:52:39;1.77;;;0.90;;
13741;SDS011;8461;52.356;10.704;2022-09-09T01:55:06;3.97;;;1.07;;
13741;SDS011;8461;52.356;10.704;2022-09-09T02:00:25;5.23;;;1.70;;
13741;SDS011;8461;52.356;10.704;2022-09-09T02:10:37;2.83;;;0.80;;
13741;SDS011;8461;52.356;10.704;2022-09-09T02:13:10;2.43;;;1.10;;
13741;SDS011;8461;52.356;10.704;2022-09-09T02:18:13;4.33;;;1.13;;
13741;SDS011;8461;52.356;10.704;2022-09-09T02:20:43;1.43;;;1.00;;
13741;SDS011;8461;52.356;10.704;2022-09-09T02:23:11;3.30;;;0.77;;
13741;SDS011;8461;52.356;10.704;2022-09-09T02:25:39;3.50;;;1.07;;
13741;SDS011;8461;52.356;10.704;2022-09-09T02:28:06;3.70;;;1.00;;
13741;SDS011;8461;52.356;10.704;2022-09-09T02:30:35;5.70;;;1.00;;
13741;SDS011;8461;52.356;10.704;2022-09-09T02:33:03;2.10;;;0.90;;
13741;SDS011;8461;52.356;10.704;2022-09-09T02:35:31;1.50;;;0.90;;
13741;SDS011;8461;52.356;10.704;2022-09-09T02:37:59;10.60;;;1.13;;
13741;SDS011;8461;52.356;10.704;2022-09-09T02:40:28;3.27;;;1.20;;
13741;SDS011;8461;52.356;10.704;2022-09-09T02:42:54;1.83;;;0.93;;
13741;SDS011;8461;52.356;10.704;2022-09-09T02:45:22;1.87;;;1.00;;
13741;SDS011;8461;52.356;10.704;2022-09-09T02:50:22;2.33;;;1.17;;
13741;SDS011;8461;52.356;10.704;2022-09-09T02:53:10;2.50;;;1.40;;
13741;SDS011;8461;52.356;10.704;2022-09-09T02:55:48;2.90;;;1.30;;
13741;SDS011;8461;52.356;10.704;2022-09-09T02:58:19;2.97;;;1.10;;
13741;SDS011;8461;52.356;10.704;2022-09-09T03:00:46;1.60;;;0.67;;
13741;SDS011;8461;52.356;10.704;2022-09-09T03:03:13;3.13;;;1.03;;
13741;SDS011;8461;52.356;10.704;2022-09-09T03:05:41;1.93;;;0.80;;
13741;SDS011;8461;52.356;10.704;2022-09-09T03:08:08;1.13;;;0.93;;
13741;SDS011;8461;52.356;10.704;2022-09-09T03:10:34;2.60;;;0.70;;
13741;SDS011;8461;52.356;10.704;2022-09-09T03:13:00;1.63;;;0.80;;
13741;SDS011;8461;52.356;10.704;2022-09-09T03:15:25;3.03;;;1.10;;
13741;SDS011;8461;52.356;10.704;2022-09-09T03:17:56;2.83;;;1.30;;
13741;SDS011;8461;52.356;10.704;2022-09-09T03:20:23;2.03;;;0.90;;
13741;SDS011;8461;52.356;10.704;2022-09-09T03:22:53;1.60;;;1.20;;
13741;SDS011;8461;52.356;10.704;2022-09-09T03:25:20;1.87;;;1.00;;
13741;SDS011;8461;52.356;10.704;2022-09-09T03:27:48;1.93;;;0.93;;
13741;SDS011;8461;52.356;10.704;2022-09-09T03:30:14;4.53;;;0.93;;
13741;SDS011;8461;52.356;10.704;2022-09-09T03:32:40;3.30;;;1.03;;
13741;SDS011;8461;52.356;10.704;2022-09-09T03:35:06;3.83;;;1.30;;
13741;SDS011;8461;52.356;10.704;2022-09-09T03:37:32;3.30;;;1.23;;
13741;SDS011;8461;52.356;10.704;2022-09-09T03:39:58;3.53;;;1.10;;
13741;SDS011;8461;52.356;10.704;2022-09-09T03:42:24;6.47;;;1.50;;
13741;SDS011;8461;52.356;10.704;2022-09-09T03:44:50;6.27;;;1.20;;
13741;SDS011;8461;52.356;10.704;2022-09-09T03:47:17;4.87;;;1.20;;
13741;SDS011;8461;52.356;10.704;2022-09-09T03:49:43;4.00;;;1.30;;
13741;SDS011;8461;52.356;10.704;2022-09-09T03:52:09;2.10;;;1.10;;
13741;SDS011;8461;52.356;10.704;2022-09-09T03:54:34;1.87;;;0.90;;
13741;SDS011;8461;52.356;10.704;2022-09-09T03:57:00;3.03;;;1.07;;
13741;SDS011;8461;52.356;10.704;2022-09-09T03:59:27;1.37;;;0.90;;
13741;SDS011;8461;52.356;10.704;2022-09-09T04:01:53;3.17;;;0.80;;
13741;SDS011;8461;52.356;10.704;2022-09-09T04:04:19;1.10;;;0.90;;
13741;SDS011;8461;52.356;10.704;2022-09-09T04:06:45;3.87;;;1.17;;
13741;SDS011;8461;52.356;10.704;2022-09-09T04:09:13;2.97;;;1.20;;
13741;SDS011;8461;52.356;10.704;2022-09-09T04:11:38;3.27;;;1.20;;
13741;SDS011;8461;52.356;10.704;2022-09-09T04:14:04;2.03;;;1.30;;
13741;SDS011;8461;52.356;10.704;2022-09-09T04:16:31;6.73;;;1.53;;
13741;SDS011;8461;52.356;10.704;2022-09-09T04:18:58;6.00;;;1.50;;
13741;SDS011;8461;52.356;10.704;2022-09-09T04:21:24;3.53;;;1.30;;
13741;SDS011;8461;52.356;10.704;2022-09-09T04:23:51;2.30;;;1.20;;
13741;SDS011;8461;52.356;10.704;2022-09-09T04:26:16;3.47;;;1.30;;
13741;SDS011;8461;52.356;10.704;2022-09-09T04:28:43;2.97;;;1.43;;
13741;SDS011;8461;52.356;10.704;2022-09-09T04:31:09;3.73;;;1.33;;
13741;SDS011;8461;52.356;10.704;2022-09-09T04:33:39;2.83;;;1.67;;
13741;SDS011;8461;52.356;10.704;2022-09-09T04:36:05;3.67;;;1.90;;
13741;SDS011;8461;52.356;10.704;2022-09-09T04:38:31;2.40;;;1.47;;
13741;SDS011;8461;52.356;10.704;2022-09-09T04:40:56;7.90;;;1.83;;
13741;SDS011;8461;52.356;10.704;2022-09-09T04:43:22;4.20;;;1.90;;
13741;SDS011;8461;52.356;10.704;2022-09-09T04:45:48;3.00;;;1.20;;
13741;SDS011;8461;52.356;10.704;2022-09-09T04:48:14;3.73;;;1.40;;
13741;SDS011;8461;52.356;10.704;2022-09-09T04:50:40;1.70;;;0.93;;
13741;SDS011;8461;52.356;10.704;2022-09-09T04:53:05;4.33;;;1.60;;
13741;SDS011;8461;52.356;10.704;2022-09-09T04:55:32;5.33;;;1.17;;
13741;SDS011;8461;52.356;10.704;2022-09-09T04:58:03;6.27;;;1.40;;
13741;SDS011;8461;52.356;10.704;2022-09-09T05:00:30;2.53;;;0.90;;
13741;SDS011;8461;52.356;10.704;2022-09-09T05:02:55;2.53;;;0.90;;
13741;SDS011;8461;52.356;10.704;2022-09-09T05:05:21;4.57;;;1.17;;
13741;SDS011;8461;52.356;10.704;2022-09-09T05:07:47;6.13;;;1.53;;
13741;SDS011;8461;52.356;10.704;2022-09-09T05:10:13;3.40;;;1.33;;
13741;SDS011;8461;52.356;10.704;2022-09-09T05:12:40;3.57;;;0.93;;
13741;SDS011;8461;52.356;10.704;2022-09-09T05:15:05;1.90;;;0.83;;
13741;SDS011;8461;52.356;10.704;2022-09-09T05:17:32;2.50;;;1.17;;
13741;SDS011;8461;52.356;10.704;2022-09-09T05:19:58;2.03;;;1.10;;
13741;SDS011;8461;52.356;10.704;2022-09-09T05:22:24;1.67;;;1.13;;
13741;SDS011;8461;52.356;10.704;2022-09-09T05:24:49;2.43;;;1.40;;
13741;SDS011;8461;52.356;10.704;2022-09-09T05:27:16;3.83;;;1.27;;
13741;SDS011;8461;52.356;10.704;2022-09-09T05:29:44;4.40;;;1.10;;
13741;SDS011;8461;52.356;10.704;2022-09-09T05:32:10;4.03;;;1.70;;
13741;SDS011;8461;52.356;10.704;2022-09-09T05:34:35;3.13;;;1.57;;
13741;SDS011;8461;52.356;10.704;2022-09-09T05:37:02;2.17;;;1.33;;
13741;SDS011;8461;52.356;10.704;2022-09-09T05:39:29;3.53;;;1.60;;
13741;SDS011;8461;52.356;10.704;2022-09-09T05:41:55;4.27;;;2.20;;
13741;SDS011;8461;52.356;10.704;2022-09-09T05:44:20;4.73;;;1.70;;
13741;SDS011;8461;52.356;10.704;2022-09-09T05:46:48;4.43;;;2.10;;
13741;SDS011;8461;52.356;10.704;2022-09-09T05:49:14;6.77;;;1.70;;
13741;SDS011;8461;52.356;10.704;2022-09-09T05:51:40;6.03;;;1.90;;
13741;SDS011;8461;52.356;10.704;2022-09-09T05:54:07;5.73;;;2.30;;
13741;SDS011;8461;52.356;10.704;2022-09-09T05:56:33;3.33;;;2.07;;
13741;SDS011;8461;52.356;10.704;2022-09-09T05:58:59;7.40;;;2.00;;
13741;SDS011;8461;52.356;10.704;2022-09-09T06:01:26;5.43;;;1.60;;
13741;SDS011;8461;52.356;10.704;2022-09-09T06:03:54;3.80;;;1.57;;
13741;SDS011;8461;52.356;10.704;2022-09-09T06:06:20;6.93;;;1.77;;
13741;SDS011;8461;52.356;10.704;2022-09-09T06:08:49;2.87;;;1.50;;
13741;SDS011;8461;52.356;10.704;2022-09-09T06:11:17;3.57;;;1.70;;
13741;SDS011;8461;52.356;10.704;2022-09-09T06:13:45;4.83;;;1.50;;
13741;SDS011;8461;52.356;10.704;2022-09-09T06:16:11;3.23;;;1.60;;
13741;SDS011;8461;52.356;10.704;2022-09-09T06:18:38;3.63;;;1.80;;
13741;SDS011;8461;52.356;10.704;2022-09-09T06:21:05;4.40;;;1.57;;
13741;SDS011;8461;52.356;10.704;2022-09-09T06:23:32;7.40;;;1.80;;
13741;SDS011;8461;52.356;10.704;2022-09-09T06:26:02;7.33;;;1.80;;
13741;SDS011;8461;52.356;10.704;2022-09-09T06:28:30;3.53;;;1.30;;
13741;SDS011;8461;52.356;10.704;2022-09-09T06:31:03;5.53;;;1.67;;
13741;SDS011;8461;52.356;10.704;2022-09-09T06:33:35;2.63;;;1.43;;
13741;SDS011;8461;52.356;10.704;2022-09-09T06:36:05;3.87;;;2.00;;
13741;SDS011;8461;52.356;10.704;2022-09-09T06:38:30;3.97;;;1.50;;
13741;SDS011;8461;52.356;10.704;2022-09-09T06:40:57;2.70;;;1.80;;
13741;SDS011;8461;52.356;10.704;2022-09-09T06:43:24;2.60;;;1.20;;
13741;SDS011;8461;52.356;10.704;2022-09-09T06:48:23;3.63;;;1.40;;
13741;SDS011;8461;52.356;10.704;2022-09-09T06:50:51;6.43;;;1.40;;
13741;SDS011;8461;52.356;10.704;2022-09-09T06:53:25;3.53;;;1.33;;
13741;SDS011;8461;52.356;10.704;2022-09-09T06:55:51;6.17;;;1.90;;
13741;SDS011;8461;52.356;10.704;2022-09-09T06:58:16;3.57;;;1.40;;
13741;SDS011;8461;52.356;10.704;2022-09-09T07:00:42;4.93;;;1.50;;
13741;SDS011;8461;52.356;10.704;2022-09-09T07:03:07;5.57;;;1.70;;
13741;SDS011;8461;52.356;10.704;2022-09-09T07:05:35;5.13;;;1.87;;
13741;SDS011;8461;52.356;10.704;2022-09-09T07:08:00;2.87;;;1.37;;
13741;SDS011;8461;52.356;10.704;2022-09-09T07:10:27;3.70;;;1.67;;
13741;SDS011;8461;52.356;10.704;2022-09-09T07:12:52;5.40;;;1.30;;
13741;SDS011;8461;52.356;10.704;2022-09-09T07:15:19;6.67;;;1.73;;
13741;SDS011;8461;52.356;10.704;2022-09-09T07:17:47;2.63;;;1.40;;
13741;SDS011;8461;52.356;10.704;2022-09-09T07:20:13;5.80;;;1.43;;
13741;SDS011;8461;52.356;10.704;2022-09-09T07:22:40;4.30;;;1.10;;
13741;SDS011;8461;52.356;10.704;2022-09-09T07:25:06;6.80;;;1.63;;
13741;SDS011;8461;52.356;10.704;2022-09-09T07:27:32;2.63;;;1.20;;
13741;SDS011;8461;52.356;10.704;2022-09-09T07:29:58;6.83;;;1.57;;
13741;SDS011;8461;52.356;10.704;2022-09-09T07:32:24;6.10;;;1.27;;
13741;SDS011;8461;52.356;10.704;2022-09-09T07:34:50;3.93;;;1.00;;
13741;SDS011;8461;52.356;10.704;2022-09-09T07:37:16;4.23;;;1.07;;
13741;SDS011;8461;52.356;10.704;2022-09-09T07:39:42;4.00;;;1.53;;
13741;SDS011;8461;52.356;10.704;2022-09-09T07:42:08;3.83;;;1.37;;
13741;SDS011;8461;52.356;10.704;2022-09-09T07:44:36;5.33;;;1.63;;
13741;SDS011;8461;52.356;10.704;2022-09-09T07:47:04;3.33;;;1.30;;
13741;SDS011;8461;52.356;10.704;2022-09-09T07:49:30;2.67;;;1.40;;
13741;SDS011;8461;52.356;10.704;2022-09-09T07:51:56;4.63;;;1.73;;
13741;SDS011;8461;52.356;10.704;2022-09-09T07:54:22;4.47;;;2.10;;
13741;SDS011;8461;52.356;10.704;2022-09-09T07:56:48;10.03;;;1.90;;
13741;SDS011;8461;52.356;10.704;2022-09-09T07:59:14;4.50;;;1.07;;
13741;SDS011;8461;52.356;10.704;2022-09-09T08:01:44;2.00;;;1.00;;
13741;SDS011;8461;52.356;10.704;2022-09-09T08:04:15;3.50;;;0.97;;
13741;SDS011;8461;52.356;10.704;2022-09-09T08:06:44;2.73;;;1.00;;
13741;SDS011;8461;52.356;10.704;2022-09-09T08:09:12;4.83;;;1.03;;
13741;SDS011;8461;52.356;10.704;2022-09-09T08:11:38;8.40;;;1.07;;
13741;SDS011;8461;52.356;10.704;2022-09-09T08:14:04;5.73;;;1.30;;
13741;SDS011;8461;52.356;10.704;2022-09-09T08:16:33;3.80;;;1.20;;
13741;SDS011;8461;52.356;10.704;2022-09-09T08:19:02;3.07;;;1.20;;
13741;SDS011;8461;52.356;10.704;2022-09-09T08:21:29;3.83;;;0.93;;
13741;SDS011;8461;52.356;10.704;2022-09-09T08:23:57;4.90;;;1.33;;
13741;SDS011;8461;52.356;10.704;2022-09-09T08:26:25;2.83;;;0.90;;
13741;SDS011;8461;52.356;10.704;2022-09-09T08:28:53;2.33;;;0.93;;
13741;SDS011;8461;52.356;10.704;2022-09-09T08:31:32;3.17;;;1.17;;
13741;SDS011;8461;52.356;10.704;2022-09-09T08:33:58;4.83;;;1.33;;
13741;SDS011;8461;52.356;10.704;2022-09-09T08:36:31;5.23;;;1.10;;
13741;SDS011;8461;52.356;10.704;2022-09-09T08:38:58;2.53;;;1.10;;
13741;SDS011;8461;52.356;10.704;2022-09-09T08:41:46;6.90;;;1.30;;
13741;SDS011;8461;52.356;10.704;2022-09-09T08:46:57;2.63;;;1.10;;
13741;SDS011;8461;52.356;10.704;2022-09-09T08:52:31;5.23;;;1.20;;
13741;SDS011;8461;52.356;10.704;2022-09-09T08:57:58;4.03;;;1.13;;
13741;SDS011;8461;52.356;10.704;2022-09-09T09:09:06;1.70;;;0.90;;
13741;SDS011;8461;52.356;10.704;2022-09-09T09:11:37;2.87;;;1.13;;
13741;SDS011;8461;52.356;10.704;2022-09-09T09:14:09;5.87;;;1.23;;
13741;SDS011;8461;52.356;10.704;2022-09-09T09:16:51;2.23;;;1.00;;
13741;SDS011;8461;52.356;10.704;2022-09-09T09:19:20;4.83;;;1.30;;
13741;SDS011;8461;52.356;10.704;2022-09-09T09:24:31;4.60;;;1.30;;
13741;SDS011;8461;52.356;10.704;2022-09-09T09:27:30;3.60;;;1.23;;
13741;SDS011;8461;52.356;10.704;2022-09-09T09:29:56;5.17;;;1.47;;
13741;SDS011;8461;52.356;10.704;2022-09-09T09:32:24;3.73;;;1.10;;
13741;SDS011;8461;52.356;10.704;2022-09-09T09:34:55;5.00;;;1.50;;
13741;SDS011;8461;52.356;10.704;2022-09-09T09:37:26;5.03;;;1.40;;
13741;SDS011;8461;52.356;10.704;2022-09-09T09:39:55;7.87;;;1.47;;
13741;SDS011;8461;52.356;10.704;2022-09-09T09:42:20;4.17;;;1.37;;
13741;SDS011;8461;52.356;10.704;2022-09-09T09:44:47;4.83;;;1.20;;
13741;SDS011;8461;52.356;10.704;2022-09-09T09:47:13;4.03;;;1.50;;
13741;SDS011;8461;52.356;10.704;2022-09-09T09:52:25;7.30;;;1.43;;
13741;SDS011;8461;52.356;10.704;2022-09-09T09:54:53;5.67;;;1.33;;
13741;SDS011;8461;52.356;10.704;2022-09-09T09:57:27;3.47;;;1.17;;
13741;SDS011;8461;52.356;10.704;2022-09-09T10:00:15;7.77;;;2.07;;
13741;SDS011;8461;52.356;10.704;2022-09-09T10:02:45;5.13;;;1.70;;
13741;SDS011;8461;52.356;10.704;2022-09-09T10:07:37;4.57;;;0.80;;
13741;SDS011;8461;52.356;10.704;2022-09-09T10:10:03;2.33;;;0.73;;
13741;SDS011;8461;52.356;10.704;2022-09-09T10:18:05;1.93;;;0.40;;
13741;SDS011;8461;52.356;10.704;2022-09-09T10:28:50;5.77;;;1.40;;
13741;SDS011;8461;52.356;10.704;2022-09-09T10:37:11;4.40;;;0.77;;
13741;SDS011;8461;52.356;10.704;2022-09-09T10:39:50;4.47;;;1.20;;
13741;SDS011;8461;52.356;10.704;2022-09-09T10:42:34;3.23;;;0.80;;
13741;SDS011;8461;52.356;10.704;2022-09-09T10:45:15;5.20;;;1.33;;
13741;SDS011;8461;52.356;10.704;2022-09-09T10:53:35;5.53;;;0.70;;
13741;SDS011;8461;52.356;10.704;2022-09-09T10:56:09;5.57;;;0.80;;
13741;SDS011;8461;52.356;10.704;2022-09-09T10:58:42;2.83;;;0.70;;
13741;SDS011;8461;52.356;10.704;2022-09-09T11:01:19;4.50;;;0.70;;
13741;SDS011;8461;52.356;10.704;2022-09-09T11:03:51;3.13;;;0.50;;
13741;SDS011;8461;52.356;10.704;2022-09-09T11:06:26;3.20;;;0.67;;
13741;SDS011;8461;52.356;10.704;2022-09-09T11:08:57;3.27;;;0.67;;
13741;SDS011;8461;52.356;10.704;2022-09-09T11:11:39;2.60;;;0.80;;
13741;SDS011;8461;52.356;10.704;2022-09-09T11:14:19;2.23;;;0.60;;
13741;SDS011;8461;52.356;10.704;2022-09-09T11:16:58;6.20;;;0.73;;
13741;SDS011;8461;52.356;10.704;2022-09-09T11:19:38;2.93;;;0.70;;
13741;SDS011;8461;52.356;10.704;2022-09-09T11:27:11;5.20;;;1.10;;
13741;SDS011;8461;52.356;10.704;2022-09-09T11:32:47;5.33;;;1.10;;
13741;SDS011;8461;52.356;10.704;2022-09-09T11:38:46;1.47;;;0.70;;
13741;SDS011;8461;52.356;10.704;2022-09-09T11:41:16;2.10;;;0.70;;
13741;SDS011;8461;52.356;10.704;2022-09-09T11:43:46;1.57;;;0.60;;
13741;SDS011;8461;52.356;10.704;2022-09-09T11:46:17;5.90;;;0.97;;
13741;SDS011;8461;52.356;10.704;2022-09-09T11:49:03;4.30;;;0.90;;
13741;SDS011;8461;52.356;10.704;2022-09-09T11:51:31;2.67;;;0.63;;
13741;SDS011;8461;52.356;10.704;2022-09-09T11:54:02;2.47;;;0.70;;
13741;SDS011;8461;52.356;10.704;2022-09-09T11:56:47;2.23;;;0.60;;
13741;SDS011;8461;52.356;10.704;2022-09-09T11:59:20;4.23;;;0.90;;
13741;SDS011;8461;52.356;10.704;2022-09-09T12:14:56;4.33;;;1.50;;
13741;SDS011;8461;52.356;10.704;2022-09-09T12:17:29;4.40;;;1.27;;
13741;SDS011;8461;52.356;10.704;2022-09-09T12:20:30;3.87;;;1.23;;
13741;SDS011;8461;52.356;10.704;2022-09-09T12:26:00;4.00;;;0.90;;
13741;SDS011;8461;52.356;10.704;2022-09-09T12:31:44;5.07;;;2.27;;
13741;SDS011;8461;52.356;10.704;2022-09-09T12:34:19;2.83;;;1.90;;
13741;SDS011;8461;52.356;10.704;2022-09-09T12:37:03;2.80;;;2.00;;
13741;SDS011;8461;52.356;10.704;2022-09-09T12:39:51;1.83;;;0.70;;
13741;SDS011;8461;52.356;10.704;2022-09-09T12:42:21;4.00;;;0.80;;
13741;SDS011;8461;52.356;10.704;2022-09-09T12:44:51;4.90;;;1.20;;
13741;SDS011;8461;52.356;10.704;2022-09-09T12:50:20;6.10;;;1.13;;
13741;SDS011;8461;52.356;10.704;2022-09-09T12:52:47;7.00;;;1.47;;
13741;SDS011;8461;52.356;10.704;2022-09-09T12:55:17;5.13;;;1.20;;
13741;SDS011;8461;52.356;10.704;2022-09-09T12:57:44;4.57;;;0.97;;
13741;SDS011;8461;52.356;10.704;2022-09-09T13:00:17;6.70;;;1.10;;
13741;SDS011;8461;52.356;10.704;2022-09-09T13:02:52;3.83;;;0.77;;
13741;SDS011;8461;52.356;10.704;2022-09-09T13:05:26;9.20;;;1.10;;
13741;SDS011;8461;52.356;10.704;2022-09-09T13:08:05;2.97;;;0.90;;
13741;SDS011;8461;52.356;10.704;2022-09-09T13:10:43;2.43;;;0.97;;
13741;SDS011;8461;52.356;10.704;2022-09-09T13:13:23;3.17;;;0.70;;
13741;SDS011;8461;52.356;10.704;2022-09-09T13:15:56;3.70;;;0.90;;
13741;SDS011;8461;52.356;10.704;2022-09-09T13:18:23;3.27;;;0.70;;
13741;SDS011;8461;52.356;10.704;2022-09-09T13:20:53;4.97;;;1.00;;
13741;SDS011;8461;52.356;10.704;2022-09-09T13:23:21;3.03;;;0.70;;
13741;SDS011;8461;52.356;10.704;2022-09-09T13:25:53;3.30;;;0.73;;
13741;SDS011;8461;52.356;10.704;2022-09-09T13:28:22;5.53;;;1.20;;
13741;SDS011;8461;52.356;10.704;2022-09-09T13:30:56;5.57;;;1.10;;
13741;SDS011;8461;52.356;10.704;2022-09-09T13:33:29;3.17;;;1.30;;
13741;SDS011;8461;52.356;10.704;2022-09-09T13:35:57;4.83;;;1.50;;
13741;SDS011;8461;52.356;10.704;2022-09-09T13:38:30;5.20;;;0.73;;
13741;SDS011;8461;52.356;10.704;2022-09-09T13:40:59;1.70;;;0.73;;
13741;SDS011;8461;52.356;10.704;2022-09-09T13:43:28;3.30;;;0.80;;
13741;SDS011;8461;52.356;10.704;2022-09-09T13:51:40;3.37;;;0.70;;
13741;SDS011;8461;52.356;10.704;2022-09-09T13:54:10;3.87;;;0.73;;
13741;SDS011;8461;52.356;10.704;2022-09-09T13:56:37;3.87;;;0.80;;
13741;SDS011;8461;52.356;10.704;2022-09-09T13:59:05;3.03;;;0.80;;
13741;SDS011;8461;52.356;10.704;2022-09-09T14:01:34;2.57;;;0.60;;
13741;SDS011;8461;52.356;10.704;2022-09-09T14:04:00;2.13;;;0.60;;
13741;SDS011;8461;52.356;10.704;2022-09-09T14:06:25;2.93;;;0.60;;
13741;SDS011;8461;52.356;10.704;2022-09-09T14:08:52;4.60;;;0.77;;
13741;SDS011;8461;52.356;10.704;2022-09-09T14:11:19;3.43;;;0.77;;
13741;SDS011;8461;52.356;10.704;2022-09-09T14:13:46;2.03;;;0.63;;
13741;SDS011;8461;52.356;10.704;2022-09-09T14:16:12;2.33;;;0.67;;
13741;SDS011;8461;52.356;10.704;2022-09-09T14:18:38;2.73;;;0.57;;
13741;SDS011;8461;52.356;10.704;2022-09-09T14:21:04;3.80;;;0.70;;
13741;SDS011;8461;52.356;10.704;2022-09-09T14:23:30;3.10;;;0.77;;
13741;SDS011;8461;52.356;10.704;2022-09-09T14:25:57;5.73;;;1.27;;
13741;SDS011;8461;52.356;10.704;2022-09-09T14:28:22;3.10;;;0.83;;
13741;SDS011;8461;52.356;10.704;2022-09-09T14:30:48;2.60;;;0.60;;
13741;SDS011;8461;52.356;10.704;2022-09-09T14:33:14;3.43;;;0.90;;
13741;SDS011;8461;52.356;10.704;2022-09-09T14:35:41;2.23;;;0.70;;
13741;SDS011;8461;52.356;10.704;2022-09-09T14:38:07;2.93;;;0.70;;
13741;SDS011;8461;52.356;10.704;2022-09-09T14:40:34;3.13;;;0.77;;
13741;SDS011;8461;52.356;10.704;2022-09-09T14:43:01;3.73;;;0.73;;
13741;SDS011;8461;52.356;10.704;2022-09-09T14:45:27;2.80;;;0.90;;
13741;SDS011;8461;52.356;10.704;2022-09-09T14:47:53;2.90;;;0.90;;
13741;SDS011;8461;52.356;10.704;2022-09-09T14:50:19;2.07;;;0.50;;
13741;SDS011;8461;52.356;10.704;2022-09-09T14:52:45;4.23;;;0.60;;
13741;SDS011;8461;52.356;10.704;2022-09-09T14:55:11;3.73;;;0.50;;
13741;SDS011;8461;52.356;10.704;2022-09-09T14:57:37;1.83;;;0.40;;
13741;SDS011;8461;52.356;10.704;2022-09-09T15:00:05;2.60;;;0.40;;
13741;SDS011;8461;52.356;10.704;2022-09-09T15:02:32;4.10;;;0.50;;
13741;SDS011;8461;52.356;10.704;2022-09-09T15:04:58;2.53;;;0.53;;
13741;SDS011;8461;52.356;10.704;2022-09-09T15:07:24;2.23;;;0.80;;
13741;SDS011;8461;52.356;10.704;2022-09-09T15:09:50;4.30;;;0.70;;
13741;SDS011;8461;52.356;10.704;2022-09-09T15:12:17;2.53;;;0.90;;
13741;SDS011;8461;52.356;10.704;2022-09-09T15:14:43;2.53;;;0.53;;
13741;SDS011;8461;52.356;10.704;2022-09-09T15:17:10;3.30;;;0.50;;
13741;SDS011;8461;52.356;10.704;2022-09-09T15:19:36;2.53;;;0.60;;
13741;SDS011;8461;52.356;10.704;2022-09-09T15:22:02;3.37;;;0.60;;
13741;SDS011;8461;52.356;10.704;2022-09-09T15:24:30;2.50;;;0.70;;
13741;SDS011;8461;52.356;10.704;2022-09-09T15:26:56;2.17;;;0.63;;
13741;SDS011;8461;52.356;10.704;2022-09-09T15:29:22;2.03;;;0.63;;
13741;SDS011;8461;52.356;10.704;2022-09-09T15:31:48;3.97;;;0.90;;
13741;SDS011;8461;52.356;10.704;2022-09-09T15:34:14;1.03;;;0.40;;
13741;SDS011;8461;52.356;10.704;2022-09-09T15:36:43;1.97;;;0.50;;
13741;SDS011;8461;52.356;10.704;2022-09-09T15:39:13;2.17;;;0.47;;
13741;SDS011;8461;52.356;10.704;2022-09-09T15:41:43;2.10;;;0.73;;
13741;SDS011;8461;52.356;10.704;2022-09-09T15:44:10;4.93;;;0.70;;
13741;SDS011;8461;52.356;10.704;2022-09-09T15:46:44;1.47;;;0.47;;
13741;SDS011;8461;52.356;10.704;2022-09-09T15:49:15;3.50;;;0.70;;
13741;SDS011;8461;52.356;10.704;2022-09-09T15:51:44;4.30;;;0.90;;
13741;SDS011;8461;52.356;10.704;2022-09-09T15:54:15;2.43;;;0.70;;
13741;SDS011;8461;52.356;10.704;2022-09-09T15:56:43;3.20;;;0.67;;
13741;SDS011;8461;52.356;10.704;2022-09-09T15:59:09;2.53;;;1.07;;
13741;SDS011;8461;52.356;10.704;2022-09-09T16:01:36;2.93;;;0.70;;
13741;SDS011;8461;52.356;10.704;2022-09-09T16:04:04;1.53;;;0.57;;
13741;SDS011;8461;52.356;10.704;2022-09-09T16:06:30;3.40;;;1.00;;
13741;SDS011;8461;52.356;10.704;2022-09-09T16:08:57;1.50;;;0.60;;
13741;SDS011;8461;52.356;10.704;2022-09-09T16:13:51;3.07;;;0.50;;
13741;SDS011;8461;52.356;10.704;2022-09-09T16:16:19;3.03;;;0.70;;
13741;SDS011;8461;52.356;10.704;2022-09-09T16:18:50;4.00;;;0.80;;
13741;SDS011;8461;52.356;10.704;2022-09-09T16:21:19;4.37;;;1.10;;
13741;SDS011;8461;52.356;10.704;2022-09-09T16:23:50;1.87;;;0.50;;
13741;SDS011;8461;52.356;10.704;2022-09-09T16:26:18;3.13;;;0.70;;
13741;SDS011;8461;52.356;10.704;2022-09-09T16:28:44;2.53;;;0.60;;
13741;SDS011;8461;52.356;10.704;2022-09-09T16:31:12;2.80;;;0.90;;
13741;SDS011;8461;52.356;10.704;2022-09-09T16:33:40;4.37;;;0.87;;
13741;SDS011;8461;52.356;10.704;2022-09-09T16:36:07;2.80;;;1.03;;
13741;SDS011;8461;52.356;10.704;2022-09-09T16:38:35;3.20;;;0.77;;
13741;SDS011;8461;52.356;10.704;2022-09-09T16:41:01;3.73;;;0.90;;
13741;SDS011;8461;52.356;10.704;2022-09-09T16:43:27;1.33;;;0.60;;
13741;SDS011;8461;52.356;10.704;2022-09-09T16:45:53;1.63;;;0.50;;
13741;SDS011;8461;52.356;10.704;2022-09-09T16:48:18;1.77;;;0.40;;
13741;SDS011;8461;52.356;10.704;2022-09-09T16:50:45;1.87;;;0.97;;
13741;SDS011;8461;52.356;10.704;2022-09-09T16:53:10;4.17;;;0.83;;
13741;SDS011;8461;52.356;10.704;2022-09-09T16:55:40;3.63;;;0.80;;
13741;SDS011;8461;52.356;10.704;2022-09-09T16:58:07;1.97;;;0.70;;
13741;SDS011;8461;52.356;10.704;2022-09-09T17:00:34;2.53;;;0.80;;
13741;SDS011;8461;52.356;10.704;2022-09-09T17:03:00;3.90;;;0.87;;
13741;SDS011;8461;52.356;10.704;2022-09-09T17:05:26;3.57;;;0.80;;
13741;SDS011;8461;52.356;10.704;2022-09-09T17:07:51;3.97;;;1.17;;
13741;SDS011;8461;52.356;10.704;2022-09-09T17:10:18;3.80;;;1.00;;
13741;SDS011;8461;52.356;10.704;2022-09-09T17:12:44;2.80;;;0.70;;
13741;SDS011;8461;52.356;10.704;2022-09-09T17:15:10;3.63;;;0.80;;
13741;SDS011;8461;52.356;10.704;2022-09-09T17:17:36;2.13;;;0.80;;
13741;SDS011;8461;52.356;10.704;2022-09-09T17:20:02;3.60;;;0.90;;
13741;SDS011;8461;52.356;10.704;2022-09-09T17:22:28;4.90;;;1.13;;
13741;SDS011;8461;52.356;10.704;2022-09-09T17:24:54;5.57;;;1.10;;
13741;SDS011;8461;52.356;10.704;2022-09-09T17:27:19;2.73;;;1.00;;